sensor_id;sensor_type;location;lat;lon;timestamp;P1;durP1;ratioP1;P2;durP2;ratioP2
5823;SDS011;2938;52.254;12.988;2024-03-22T00:00:57;29.02;;;16.98;;
5823;SDS011;2938;52.254;12.988;2024-03-22T00:03:22;25.52;;;15.52;;
5823;SDS011;2938;52.254;12.988;2024-03-22T00:05:50;26.80;;;17.20;;
5823;SDS011;2938;52.254;12.988;2024-03-22T00:08:16;23.55;;;13.95;;
5823;SDS011;2938;52.254;12.988;2024-03-22T00:10:52;21.85;;;14.88;;
5823;SDS011;2938;52.254;12.988;2024-03-22T00:13:18;25.73;;;16.17;;
5823;SDS011;2938;52.254;12.988;2024-03-22T00:15:46;27.92;;;17.02;;
5823;SDS011;2938;52.254;12.988;2024-03-22T00:18:17;26.02;;;15.88;;
5823;SDS011;2938;52.254;12.988;2024-03-22T00:20:42;23.10;;;15.77;;
5823;SDS011;2938;52.254;12.988;2024-03-22T00:23:10;22.77;;;15.25;;
5823;SDS011;2938;52.254;12.988;2024-03-22T00:25:41;24.80;;;14.27;;
5823;SDS011;2938;52.254;12.988;2024-03-22T00:31:03;23.63;;;15.68;;
5823;SDS011;2938;52.254;12.988;2024-03-22T00:33:40;24.92;;;15.43;;
5823;SDS011;2938;52.254;12.988;2024-03-22T00:36:06;23.63;;;16.27;;
5823;SDS011;2938;52.254;12.988;2024-03-22T00:38:37;24.73;;;15.35;;
5823;SDS011;2938;52.254;12.988;2024-03-22T00:41:03;19.55;;;14.65;;
5823;SDS011;2938;52.254;12.988;2024-03-22T00:43:32;31.63;;;17.98;;
5823;SDS011;2938;52.254;12.988;2024-03-22T00:45:59;25.35;;;15.68;;
5823;SDS011;2938;52.254;12.988;2024-03-22T00:48:29;28.60;;;16.92;;
5823;SDS011;2938;52.254;12.988;2024-03-22T00:51:02;28.08;;;16.23;;
5823;SDS011;2938;52.254;12.988;2024-03-22T00:53:35;24.50;;;15.68;;
5823;SDS011;2938;52.254;12.988;2024-03-22T00:56:33;25.83;;;14.90;;
5823;SDS011;2938;52.254;12.988;2024-03-22T00:58:58;20.20;;;15.15;;
5823;SDS011;2938;52.254;12.988;2024-03-22T01:01:23;23.52;;;14.20;;
5823;SDS011;2938;52.254;12.988;2024-03-22T01:04:06;21.88;;;13.50;;
5823;SDS011;2938;52.254;12.988;2024-03-22T01:06:40;22.20;;;15.07;;
5823;SDS011;2938;52.254;12.988;2024-03-22T01:09:08;21.13;;;13.90;;
5823;SDS011;2938;52.254;12.988;2024-03-22T01:11:33;23.23;;;15.88;;
5823;SDS011;2938;52.254;12.988;2024-03-22T01:13:59;27.83;;;14.30;;
5823;SDS011;2938;52.254;12.988;2024-03-22T01:16:27;23.27;;;14.35;;
5823;SDS011;2938;52.254;12.988;2024-03-22T01:18:52;24.05;;;14.98;;
5823;SDS011;2938;52.254;12.988;2024-03-22T01:21:18;25.30;;;15.63;;
5823;SDS011;2938;52.254;12.988;2024-03-22T01:23:43;29.95;;;17.27;;
5823;SDS011;2938;52.254;12.988;2024-03-22T01:26:14;28.98;;;16.85;;
5823;SDS011;2938;52.254;12.988;2024-03-22T01:28:40;28.35;;;16.55;;
5823;SDS011;2938;52.254;12.988;2024-03-22T01:31:05;25.88;;;16.45;;
5823;SDS011;2938;52.254;12.988;2024-03-22T01:33:33;30.13;;;17.10;;
5823;SDS011;2938;52.254;12.988;2024-03-22T01:36:00;27.17;;;17.63;;
5823;SDS011;2938;52.254;12.988;2024-03-22T01:38:26;27.92;;;16.20;;
5823;SDS011;2938;52.254;12.988;2024-03-22T01:40:55;30.90;;;16.30;;
5823;SDS011;2938;52.254;12.988;2024-03-22T01:43:23;30.35;;;16.83;;
5823;SDS011;2938;52.254;12.988;2024-03-22T01:45:58;29.58;;;17.25;;
5823;SDS011;2938;52.254;12.988;2024-03-22T01:48:45;28.70;;;16.33;;
5823;SDS011;2938;52.254;12.988;2024-03-22T01:51:26;27.38;;;16.02;;
5823;SDS011;2938;52.254;12.988;2024-03-22T01:54:20;30.75;;;16.85;;
5823;SDS011;2938;52.254;12.988;2024-03-22T01:57:08;25.88;;;15.85;;
5823;SDS011;2938;52.254;12.988;2024-03-22T02:02:15;29.92;;;17.80;;
5823;SDS011;2938;52.254;12.988;2024-03-22T02:04:56;28.15;;;16.92;;
5823;SDS011;2938;52.254;12.988;2024-03-22T02:07:29;29.98;;;17.75;;
5823;SDS011;2938;52.254;12.988;2024-03-22T02:10:18;30.88;;;16.45;;
5823;SDS011;2938;52.254;12.988;2024-03-22T02:12:43;32.83;;;17.58;;
5823;SDS011;2938;52.254;12.988;2024-03-22T02:15:12;30.75;;;20.23;;
5823;SDS011;2938;52.254;12.988;2024-03-22T02:17:37;29.90;;;18.67;;
5823;SDS011;2938;52.254;12.988;2024-03-22T02:20:03;26.55;;;16.15;;
5823;SDS011;2938;52.254;12.988;2024-03-22T02:22:30;31.38;;;18.30;;
5823;SDS011;2938;52.254;12.988;2024-03-22T02:24:55;29.88;;;18.75;;
5823;SDS011;2938;52.254;12.988;2024-03-22T02:27:37;29.85;;;17.25;;
5823;SDS011;2938;52.254;12.988;2024-03-22T02:30:21;33.67;;;17.92;;
5823;SDS011;2938;52.254;12.988;2024-03-22T02:33:07;31.23;;;18.17;;
5823;SDS011;2938;52.254;12.988;2024-03-22T02:35:36;28.55;;;18.05;;
5823;SDS011;2938;52.254;12.988;2024-03-22T02:38:31;29.98;;;16.85;;
5823;SDS011;2938;52.254;12.988;2024-03-22T02:41:05;33.80;;;19.05;;
5823;SDS011;2938;52.254;12.988;2024-03-22T02:43:39;30.38;;;18.60;;
5823;SDS011;2938;52.254;12.988;2024-03-22T02:46:05;33.33;;;18.60;;
5823;SDS011;2938;52.254;12.988;2024-03-22T02:48:35;30.42;;;17.33;;
5823;SDS011;2938;52.254;12.988;2024-03-22T02:51:00;29.98;;;16.65;;
5823;SDS011;2938;52.254;12.988;2024-03-22T02:53:28;27.02;;;17.52;;
5823;SDS011;2938;52.254;12.988;2024-03-22T02:55:59;32.92;;;18.10;;
5823;SDS011;2938;52.254;12.988;2024-03-22T02:58:31;32.85;;;18.73;;
5823;SDS011;2938;52.254;12.988;2024-03-22T03:00:56;29.90;;;16.25;;
5823;SDS011;2938;52.254;12.988;2024-03-22T03:03:31;30.85;;;18.58;;
5823;SDS011;2938;52.254;12.988;2024-03-22T03:06:09;32.38;;;18.25;;
5823;SDS011;2938;52.254;12.988;2024-03-22T03:08:41;29.23;;;17.50;;
5823;SDS011;2938;52.254;12.988;2024-03-22T03:11:13;28.05;;;17.98;;
5823;SDS011;2938;52.254;12.988;2024-03-22T03:13:39;31.55;;;17.60;;
5823;SDS011;2938;52.254;12.988;2024-03-22T03:16:05;31.30;;;17.90;;
5823;SDS011;2938;52.254;12.988;2024-03-22T03:18:36;31.55;;;18.73;;
5823;SDS011;2938;52.254;12.988;2024-03-22T03:21:01;28.60;;;17.63;;
5823;SDS011;2938;52.254;12.988;2024-03-22T03:23:27;28.42;;;16.92;;
5823;SDS011;2938;52.254;12.988;2024-03-22T03:25:56;27.33;;;17.15;;
5823;SDS011;2938;52.254;12.988;2024-03-22T03:28:28;28.10;;;17.63;;
5823;SDS011;2938;52.254;12.988;2024-03-22T03:30:54;30.60;;;18.85;;
5823;SDS011;2938;52.254;12.988;2024-03-22T03:33:19;31.55;;;18.17;;
5823;SDS011;2938;52.254;12.988;2024-03-22T03:35:48;26.48;;;17.08;;
5823;SDS011;2938;52.254;12.988;2024-03-22T03:38:13;30.60;;;16.42;;
5823;SDS011;2938;52.254;12.988;2024-03-22T03:40:41;30.20;;;18.42;;
5823;SDS011;2938;52.254;12.988;2024-03-22T03:43:10;30.42;;;17.50;;
5823;SDS011;2938;52.254;12.988;2024-03-22T03:45:38;39.00;;;18.33;;
5823;SDS011;2938;52.254;12.988;2024-03-22T03:48:03;31.65;;;18.45;;
5823;SDS011;2938;52.254;12.988;2024-03-22T03:50:29;33.25;;;19.17;;
5823;SDS011;2938;52.254;12.988;2024-03-22T03:52:58;37.63;;;18.23;;
5823;SDS011;2938;52.254;12.988;2024-03-22T03:55:23;30.65;;;19.85;;
5823;SDS011;2938;52.254;12.988;2024-03-22T03:57:50;28.65;;;16.63;;
5823;SDS011;2938;52.254;12.988;2024-03-22T04:00:16;35.47;;;19.75;;
5823;SDS011;2938;52.254;12.988;2024-03-22T04:02:49;34.13;;;18.67;;
5823;SDS011;2938;52.254;12.988;2024-03-22T04:05:17;31.92;;;18.63;;
5823;SDS011;2938;52.254;12.988;2024-03-22T04:07:46;26.65;;;16.30;;
5823;SDS011;2938;52.254;12.988;2024-03-22T04:10:39;29.38;;;16.55;;
5823;SDS011;2938;52.254;12.988;2024-03-22T04:13:05;29.23;;;17.70;;
5823;SDS011;2938;52.254;12.988;2024-03-22T04:15:36;31.10;;;16.77;;
5823;SDS011;2938;52.254;12.988;2024-03-22T04:18:09;28.25;;;16.17;;
5823;SDS011;2938;52.254;12.988;2024-03-22T04:20:35;27.80;;;16.92;;
5823;SDS011;2938;52.254;12.988;2024-03-22T04:23:00;26.98;;;16.60;;
5823;SDS011;2938;52.254;12.988;2024-03-22T04:25:51;31.65;;;15.70;;
5823;SDS011;2938;52.254;12.988;2024-03-22T04:28:21;29.30;;;15.48;;
5823;SDS011;2938;52.254;12.988;2024-03-22T04:30:54;29.08;;;15.02;;
5823;SDS011;2938;52.254;12.988;2024-03-22T04:33:21;25.55;;;15.02;;
5823;SDS011;2938;52.254;12.988;2024-03-22T04:35:53;22.85;;;15.45;;
5823;SDS011;2938;52.254;12.988;2024-03-22T04:38:24;26.00;;;14.30;;
5823;SDS011;2938;52.254;12.988;2024-03-22T04:40:56;23.08;;;15.90;;
5823;SDS011;2938;52.254;12.988;2024-03-22T04:43:28;36.80;;;15.75;;
5823;SDS011;2938;52.254;12.988;2024-03-22T04:45:56;26.63;;;16.17;;
5823;SDS011;2938;52.254;12.988;2024-03-22T04:48:34;32.80;;;16.73;;
5823;SDS011;2938;52.254;12.988;2024-03-22T04:51:34;29.42;;;17.23;;
5823;SDS011;2938;52.254;12.988;2024-03-22T05:00:08;26.60;;;16.43;;
5823;SDS011;2938;52.254;12.988;2024-03-22T05:03:06;28.05;;;16.15;;
5823;SDS011;2938;52.254;12.988;2024-03-22T05:06:02;27.38;;;16.33;;
5823;SDS011;2938;52.254;12.988;2024-03-22T05:18:45;31.52;;;17.75;;
5823;SDS011;2938;52.254;12.988;2024-03-22T05:19:23;38.97;;;19.52;;
5823;SDS011;2938;52.254;12.988;2024-03-22T05:22:03;32.92;;;18.92;;
5823;SDS011;2938;52.254;12.988;2024-03-22T05:41:39;33.20;;;18.40;;
5823;SDS011;2938;52.254;12.988;2024-03-22T05:44:22;27.73;;;17.63;;
5823;SDS011;2938;52.254;12.988;2024-03-22T05:46:50;32.13;;;18.80;;
5823;SDS011;2938;52.254;12.988;2024-03-22T05:52:47;26.45;;;18.58;;
5823;SDS011;2938;52.254;12.988;2024-03-22T05:56:08;29.20;;;18.48;;
5823;SDS011;2938;52.254;12.988;2024-03-22T05:59:43;30.05;;;20.58;;
5823;SDS011;2938;52.254;12.988;2024-03-22T06:01:59;40.72;;;21.83;;
5823;SDS011;2938;52.254;12.988;2024-03-22T06:04:45;34.78;;;21.38;;
5823;SDS011;2938;52.254;12.988;2024-03-22T06:07:15;34.25;;;20.30;;
5823;SDS011;2938;52.254;12.988;2024-03-22T06:17:53;27.45;;;18.73;;
5823;SDS011;2938;52.254;12.988;2024-03-22T06:20:28;28.85;;;18.48;;
5823;SDS011;2938;52.254;12.988;2024-03-22T06:22:59;34.97;;;20.60;;
5823;SDS011;2938;52.254;12.988;2024-03-22T06:28:59;36.55;;;19.67;;
5823;SDS011;2938;52.254;12.988;2024-03-22T06:31:42;39.00;;;22.27;;
5823;SDS011;2938;52.254;12.988;2024-03-22T06:34:13;31.20;;;20.73;;
5823;SDS011;2938;52.254;12.988;2024-03-22T06:36:54;36.23;;;22.03;;
5823;SDS011;2938;52.254;12.988;2024-03-22T06:42:41;31.52;;;20.30;;
5823;SDS011;2938;52.254;12.988;2024-03-22T06:45:29;34.70;;;21.10;;
5823;SDS011;2938;52.254;12.988;2024-03-22T06:48:05;32.72;;;19.50;;
5823;SDS011;2938;52.254;12.988;2024-03-22T06:50:31;36.88;;;23.58;;
5823;SDS011;2938;52.254;12.988;2024-03-22T06:53:08;40.15;;;22.55;;
5823;SDS011;2938;52.254;12.988;2024-03-22T06:55:51;31.52;;;22.70;;
5823;SDS011;2938;52.254;12.988;2024-03-22T07:01:39;37.05;;;22.40;;
5823;SDS011;2938;52.254;12.988;2024-03-22T07:04:04;34.33;;;21.80;;
5823;SDS011;2938;52.254;12.988;2024-03-22T07:06:39;33.47;;;21.35;;
5823;SDS011;2938;52.254;12.988;2024-03-22T07:09:09;34.45;;;21.35;;
5823;SDS011;2938;52.254;12.988;2024-03-22T07:11:42;36.33;;;22.67;;
5823;SDS011;2938;52.254;12.988;2024-03-22T07:14:11;35.53;;;21.85;;
5823;SDS011;2938;52.254;12.988;2024-03-22T07:16:39;36.80;;;20.67;;
5823;SDS011;2938;52.254;12.988;2024-03-22T07:19:04;39.13;;;20.42;;
5823;SDS011;2938;52.254;12.988;2024-03-22T07:21:30;37.22;;;21.23;;
5823;SDS011;2938;52.254;12.988;2024-03-22T07:23:59;40.22;;;21.67;;
5823;SDS011;2938;52.254;12.988;2024-03-22T07:26:24;33.17;;;20.70;;
5823;SDS011;2938;52.254;12.988;2024-03-22T07:29:01;35.50;;;19.30;;
5823;SDS011;2938;52.254;12.988;2024-03-22T07:31:27;34.22;;;21.95;;
5823;SDS011;2938;52.254;12.988;2024-03-22T07:33:53;30.10;;;20.20;;
5823;SDS011;2938;52.254;12.988;2024-03-22T07:36:18;31.88;;;20.08;;
5823;SDS011;2938;52.254;12.988;2024-03-22T07:38:47;35.00;;;19.92;;
5823;SDS011;2938;52.254;12.988;2024-03-22T07:41:25;35.65;;;19.77;;
5823;SDS011;2938;52.254;12.988;2024-03-22T07:43:51;32.42;;;21.25;;
5823;SDS011;2938;52.254;12.988;2024-03-22T07:46:30;37.60;;;19.13;;
5823;SDS011;2938;52.254;12.988;2024-03-22T07:48:59;33.92;;;19.73;;
5823;SDS011;2938;52.254;12.988;2024-03-22T07:51:25;34.42;;;19.95;;
5823;SDS011;2938;52.254;12.988;2024-03-22T07:54:02;27.60;;;18.05;;
5823;SDS011;2938;52.254;12.988;2024-03-22T07:56:38;32.10;;;19.83;;
5823;SDS011;2938;52.254;12.988;2024-03-22T07:59:13;40.65;;;18.85;;
5823;SDS011;2938;52.254;12.988;2024-03-22T08:01:39;31.35;;;18.10;;
5823;SDS011;2938;52.254;12.988;2024-03-22T08:04:20;28.67;;;18.25;;
5823;SDS011;2938;52.254;12.988;2024-03-22T08:06:50;36.05;;;20.48;;
5823;SDS011;2938;52.254;12.988;2024-03-22T08:09:15;31.17;;;19.30;;
5823;SDS011;2938;52.254;12.988;2024-03-22T08:11:41;34.33;;;20.15;;
5823;SDS011;2938;52.254;12.988;2024-03-22T08:14:07;32.47;;;18.77;;
5823;SDS011;2938;52.254;12.988;2024-03-22T08:16:35;28.42;;;17.27;;
5823;SDS011;2938;52.254;12.988;2024-03-22T08:19:01;27.98;;;18.20;;
5823;SDS011;2938;52.254;12.988;2024-03-22T08:21:30;26.35;;;18.50;;
5823;SDS011;2938;52.254;12.988;2024-03-22T08:23:59;31.73;;;19.70;;
5823;SDS011;2938;52.254;12.988;2024-03-22T08:26:25;33.58;;;21.63;;
5823;SDS011;2938;52.254;12.988;2024-03-22T08:28:50;31.75;;;19.42;;
5823;SDS011;2938;52.254;12.988;2024-03-22T08:31:19;32.00;;;18.73;;
5823;SDS011;2938;52.254;12.988;2024-03-22T08:34:01;33.53;;;20.08;;
5823;SDS011;2938;52.254;12.988;2024-03-22T08:36:30;31.70;;;19.98;;
5823;SDS011;2938;52.254;12.988;2024-03-22T08:38:58;27.20;;;17.88;;
5823;SDS011;2938;52.254;12.988;2024-03-22T08:41:27;27.70;;;18.88;;
5823;SDS011;2938;52.254;12.988;2024-03-22T08:43:52;31.05;;;18.90;;
5823;SDS011;2938;52.254;12.988;2024-03-22T08:46:27;29.25;;;19.55;;
5823;SDS011;2938;52.254;12.988;2024-03-22T08:48:57;28.90;;;17.23;;
5823;SDS011;2938;52.254;12.988;2024-03-22T08:56:30;32.70;;;20.73;;
5823;SDS011;2938;52.254;12.988;2024-03-22T08:58:55;30.50;;;18.25;;
5823;SDS011;2938;52.254;12.988;2024-03-22T09:01:27;27.40;;;18.05;;
5823;SDS011;2938;52.254;12.988;2024-03-22T09:03:52;30.38;;;20.30;;
5823;SDS011;2938;52.254;12.988;2024-03-22T09:06:18;31.25;;;17.90;;
5823;SDS011;2938;52.254;12.988;2024-03-22T09:08:56;29.08;;;19.75;;
5823;SDS011;2938;52.254;12.988;2024-03-22T09:11:23;26.63;;;19.63;;
5823;SDS011;2938;52.254;12.988;2024-03-22T09:13:51;37.90;;;20.70;;
5823;SDS011;2938;52.254;12.988;2024-03-22T09:16:20;27.98;;;18.27;;
5823;SDS011;2938;52.254;12.988;2024-03-22T09:18:46;32.40;;;19.83;;
5823;SDS011;2938;52.254;12.988;2024-03-22T09:21:11;26.50;;;17.95;;
5823;SDS011;2938;52.254;12.988;2024-03-22T09:23:37;28.15;;;18.33;;
5823;SDS011;2938;52.254;12.988;2024-03-22T09:26:02;25.75;;;17.25;;
5823;SDS011;2938;52.254;12.988;2024-03-22T09:28:28;23.50;;;16.27;;
5823;SDS011;2938;52.254;12.988;2024-03-22T09:30:53;26.88;;;18.50;;
5823;SDS011;2938;52.254;12.988;2024-03-22T09:33:21;27.25;;;17.98;;
5823;SDS011;2938;52.254;12.988;2024-03-22T09:35:46;28.27;;;17.30;;
5823;SDS011;2938;52.254;12.988;2024-03-22T09:38:11;27.95;;;19.40;;
5823;SDS011;2938;52.254;12.988;2024-03-22T09:40:38;28.33;;;17.55;;
5823;SDS011;2938;52.254;12.988;2024-03-22T09:43:04;31.17;;;18.85;;
5823;SDS011;2938;52.254;12.988;2024-03-22T09:45:32;25.85;;;18.70;;
5823;SDS011;2938;52.254;12.988;2024-03-22T09:48:00;25.33;;;17.17;;
5823;SDS011;2938;52.254;12.988;2024-03-22T09:50:26;27.65;;;18.65;;
5823;SDS011;2938;52.254;12.988;2024-03-22T09:52:55;28.90;;;18.25;;
5823;SDS011;2938;52.254;12.988;2024-03-22T09:55:31;24.38;;;17.08;;
5823;SDS011;2938;52.254;12.988;2024-03-22T09:58:00;29.42;;;18.60;;
5823;SDS011;2938;52.254;12.988;2024-03-22T10:00:27;31.02;;;19.08;;
5823;SDS011;2938;52.254;12.988;2024-03-22T10:02:53;27.60;;;17.20;;
5823;SDS011;2938;52.254;12.988;2024-03-22T10:05:24;33.75;;;20.77;;
5823;SDS011;2938;52.254;12.988;2024-03-22T10:07:50;28.30;;;19.23;;
5823;SDS011;2938;52.254;12.988;2024-03-22T10:10:16;36.70;;;20.05;;
5823;SDS011;2938;52.254;12.988;2024-03-22T10:12:50;30.25;;;18.30;;
5823;SDS011;2938;52.254;12.988;2024-03-22T10:15:18;30.23;;;18.25;;
5823;SDS011;2938;52.254;12.988;2024-03-22T10:17:46;29.02;;;19.45;;
5823;SDS011;2938;52.254;12.988;2024-03-22T10:20:22;33.22;;;18.70;;
5823;SDS011;2938;52.254;12.988;2024-03-22T10:22:55;31.38;;;18.77;;
5823;SDS011;2938;52.254;12.988;2024-03-22T10:25:26;31.48;;;19.10;;
5823;SDS011;2938;52.254;12.988;2024-03-22T10:27:53;33.67;;;19.13;;
5823;SDS011;2938;52.254;12.988;2024-03-22T10:30:30;32.38;;;17.95;;
5823;SDS011;2938;52.254;12.988;2024-03-22T10:32:56;36.70;;;21.27;;
5823;SDS011;2938;52.254;12.988;2024-03-22T10:37:47;29.95;;;19.20;;
5823;SDS011;2938;52.254;12.988;2024-03-22T10:40:29;32.33;;;19.75;;
5823;SDS011;2938;52.254;12.988;2024-03-22T10:43:35;29.48;;;18.65;;
5823;SDS011;2938;52.254;12.988;2024-03-22T10:46:06;26.23;;;19.23;;
5823;SDS011;2938;52.254;12.988;2024-03-22T10:48:48;32.25;;;18.70;;
5823;SDS011;2938;52.254;12.988;2024-03-22T10:54:11;30.60;;;20.02;;
5823;SDS011;2938;52.254;12.988;2024-03-22T10:56:44;32.13;;;20.90;;
5823;SDS011;2938;52.254;12.988;2024-03-22T10:59:23;34.35;;;19.92;;
5823;SDS011;2938;52.254;12.988;2024-03-22T11:01:51;26.98;;;17.52;;
5823;SDS011;2938;52.254;12.988;2024-03-22T11:04:29;29.40;;;19.13;;
5823;SDS011;2938;52.254;12.988;2024-03-22T11:06:58;34.60;;;20.50;;
5823;SDS011;2938;52.254;12.988;2024-03-22T11:09:34;39.53;;;20.73;;
5823;SDS011;2938;52.254;12.988;2024-03-22T11:12:23;36.00;;;19.58;;
5823;SDS011;2938;52.254;12.988;2024-03-22T11:14:58;32.20;;;19.02;;
5823;SDS011;2938;52.254;12.988;2024-03-22T11:17:38;30.33;;;18.55;;
5823;SDS011;2938;52.254;12.988;2024-03-22T11:20:14;30.90;;;19.35;;
5823;SDS011;2938;52.254;12.988;2024-03-22T11:22:47;30.95;;;18.83;;
5823;SDS011;2938;52.254;12.988;2024-03-22T11:25:12;34.05;;;19.17;;
5823;SDS011;2938;52.254;12.988;2024-03-22T11:27:42;31.20;;;19.55;;
5823;SDS011;2938;52.254;12.988;2024-03-22T11:30:17;29.23;;;17.80;;
5823;SDS011;2938;52.254;12.988;2024-03-22T11:33:10;37.00;;;19.55;;
5823;SDS011;2938;52.254;12.988;2024-03-22T11:35:55;30.48;;;20.48;;
5823;SDS011;2938;52.254;12.988;2024-03-22T11:38:43;34.28;;;18.48;;
5823;SDS011;2938;52.254;12.988;2024-03-22T11:41:32;30.88;;;17.98;;
5823;SDS011;2938;52.254;12.988;2024-03-22T11:43:58;37.33;;;19.23;;
5823;SDS011;2938;52.254;12.988;2024-03-22T11:46:54;28.00;;;19.10;;
5823;SDS011;2938;52.254;12.988;2024-03-22T11:49:44;30.77;;;18.27;;
5823;SDS011;2938;52.254;12.988;2024-03-22T11:57:35;27.75;;;17.50;;
5823;SDS011;2938;52.254;12.988;2024-03-22T12:00:16;34.95;;;18.23;;
5823;SDS011;2938;52.254;12.988;2024-03-22T12:03:11;34.05;;;17.30;;
5823;SDS011;2938;52.254;12.988;2024-03-22T12:05:57;30.02;;;15.68;;
5823;SDS011;2938;52.254;12.988;2024-03-22T12:08:37;25.67;;;16.45;;
5823;SDS011;2938;52.254;12.988;2024-03-22T12:11:25;29.30;;;17.20;;
5823;SDS011;2938;52.254;12.988;2024-03-22T12:13:54;29.20;;;17.92;;
5823;SDS011;2938;52.254;12.988;2024-03-22T12:16:31;28.02;;;16.20;;
5823;SDS011;2938;52.254;12.988;2024-03-22T12:19:06;29.23;;;18.33;;
5823;SDS011;2938;52.254;12.988;2024-03-22T12:27:27;27.35;;;17.95;;
5823;SDS011;2938;52.254;12.988;2024-03-22T12:30:05;32.72;;;18.17;;
5823;SDS011;2938;52.254;12.988;2024-03-22T12:32:46;27.48;;;18.15;;
5823;SDS011;2938;52.254;12.988;2024-03-22T12:35:23;24.08;;;16.15;;
5823;SDS011;2938;52.254;12.988;2024-03-22T12:38:35;31.23;;;17.02;;
5823;SDS011;2938;52.254;12.988;2024-03-22T12:43:42;31.95;;;19.15;;
5823;SDS011;2938;52.254;12.988;2024-03-22T12:46:22;38.97;;;18.77;;
5823;SDS011;2938;52.254;12.988;2024-03-22T12:51:47;102.32;;;25.20;;
5823;SDS011;2938;52.254;12.988;2024-03-22T12:54:18;51.67;;;22.63;;
5823;SDS011;2938;52.254;12.988;2024-03-22T12:56:53;32.95;;;19.23;;
5823;SDS011;2938;52.254;12.988;2024-03-22T12:59:57;29.98;;;18.13;;
5823;SDS011;2938;52.254;12.988;2024-03-22T13:05:42;37.92;;;20.45;;
5823;SDS011;2938;52.254;12.988;2024-03-22T13:08:54;42.78;;;20.95;;
5823;SDS011;2938;52.254;12.988;2024-03-22T13:15:02;44.92;;;22.02;;
5823;SDS011;2938;52.254;12.988;2024-03-22T13:21:09;33.70;;;20.60;;
5823;SDS011;2938;52.254;12.988;2024-03-22T13:24:13;35.03;;;20.80;;
5823;SDS011;2938;52.254;12.988;2024-03-22T13:33:41;39.35;;;24.02;;
5823;SDS011;2938;52.254;12.988;2024-03-22T13:36:29;37.72;;;23.67;;
5823;SDS011;2938;52.254;12.988;2024-03-22T13:39:08;40.28;;;22.67;;
5823;SDS011;2938;52.254;12.988;2024-03-22T13:45:24;39.80;;;23.83;;
5823;SDS011;2938;52.254;12.988;2024-03-22T13:48:10;34.08;;;21.88;;
5823;SDS011;2938;52.254;12.988;2024-03-22T13:51:31;37.35;;;22.50;;
5823;SDS011;2938;52.254;12.988;2024-03-22T13:54:36;48.60;;;23.00;;
5823;SDS011;2938;52.254;12.988;2024-03-22T13:57:27;35.83;;;22.17;;
5823;SDS011;2938;52.254;12.988;2024-03-22T14:00:13;41.38;;;23.48;;
5823;SDS011;2938;52.254;12.988;2024-03-22T14:06:03;38.05;;;24.60;;
5823;SDS011;2938;52.254;12.988;2024-03-22T14:09:09;38.70;;;23.15;;
5823;SDS011;2938;52.254;12.988;2024-03-22T14:15:05;44.78;;;25.17;;
5823;SDS011;2938;52.254;12.988;2024-03-22T14:18:05;37.90;;;23.52;;
5823;SDS011;2938;52.254;12.988;2024-03-22T14:20:53;38.67;;;24.98;;
5823;SDS011;2938;52.254;12.988;2024-03-22T14:23:49;34.85;;;21.83;;
5823;SDS011;2938;52.254;12.988;2024-03-22T14:29:26;38.77;;;22.87;;
5823;SDS011;2938;52.254;12.988;2024-03-22T14:35:27;41.90;;;23.02;;
5823;SDS011;2938;52.254;12.988;2024-03-22T14:38:14;50.65;;;26.15;;
5823;SDS011;2938;52.254;12.988;2024-03-22T14:40:49;48.35;;;26.23;;
5823;SDS011;2938;52.254;12.988;2024-03-22T14:46:30;39.03;;;24.27;;
5823;SDS011;2938;52.254;12.988;2024-03-22T14:53:31;44.15;;;24.48;;
5823;SDS011;2938;52.254;12.988;2024-03-22T14:56:21;38.58;;;22.83;;
5823;SDS011;2938;52.254;12.988;2024-03-22T15:03:10;37.90;;;22.92;;
5823;SDS011;2938;52.254;12.988;2024-03-22T15:16:23;36.58;;;21.40;;
5823;SDS011;2938;52.254;12.988;2024-03-22T15:19:13;38.13;;;23.83;;
5823;SDS011;2938;52.254;12.988;2024-03-22T15:25:31;38.50;;;22.33;;
5823;SDS011;2938;52.254;12.988;2024-03-22T15:29:15;34.25;;;22.33;;
5823;SDS011;2938;52.254;12.988;2024-03-22T15:55:11;40.50;;;23.55;;
5823;SDS011;2938;52.254;12.988;2024-03-22T15:58:29;41.13;;;24.92;;
5823;SDS011;2938;52.254;12.988;2024-03-22T16:01:36;42.03;;;22.95;;
5823;SDS011;2938;52.254;12.988;2024-03-22T16:04:36;34.72;;;23.60;;
5823;SDS011;2938;52.254;12.988;2024-03-22T16:14:32;39.60;;;23.27;;
5823;SDS011;2938;52.254;12.988;2024-03-22T16:27:14;41.53;;;24.20;;
5823;SDS011;2938;52.254;12.988;2024-03-22T16:30:12;41.53;;;23.38;;
5823;SDS011;2938;52.254;12.988;2024-03-22T16:33:06;41.45;;;23.83;;
5823;SDS011;2938;52.254;12.988;2024-03-22T16:40:19;42.42;;;22.77;;
5823;SDS011;2938;52.254;12.988;2024-03-22T16:42:32;41.72;;;24.30;;
5823;SDS011;2938;52.254;12.988;2024-03-22T16:45:37;41.67;;;25.63;;
5823;SDS011;2938;52.254;12.988;2024-03-22T16:48:44;44.72;;;25.02;;
5823;SDS011;2938;52.254;12.988;2024-03-22T16:51:51;50.28;;;25.05;;
5823;SDS011;2938;52.254;12.988;2024-03-22T16:54:52;42.90;;;25.40;;
5823;SDS011;2938;52.254;12.988;2024-03-22T17:00:33;47.47;;;27.50;;
5823;SDS011;2938;52.254;12.988;2024-03-22T17:03:51;47.72;;;27.33;;
5823;SDS011;2938;52.254;12.988;2024-03-22T17:10:40;51.63;;;29.52;;
5823;SDS011;2938;52.254;12.988;2024-03-22T17:17:05;45.70;;;28.38;;
5823;SDS011;2938;52.254;12.988;2024-03-22T17:20:08;45.25;;;26.95;;
5823;SDS011;2938;52.254;12.988;2024-03-22T17:23:02;48.03;;;28.50;;
5823;SDS011;2938;52.254;12.988;2024-03-22T17:26:06;48.17;;;26.15;;
5823;SDS011;2938;52.254;12.988;2024-03-22T17:29:09;46.28;;;29.10;;
5823;SDS011;2938;52.254;12.988;2024-03-22T17:32:33;54.45;;;31.33;;
5823;SDS011;2938;52.254;12.988;2024-03-22T17:35:48;52.55;;;30.55;;
5823;SDS011;2938;52.254;12.988;2024-03-22T17:38:47;42.97;;;27.35;;
5823;SDS011;2938;52.254;12.988;2024-03-22T17:41:29;45.08;;;27.80;;
5823;SDS011;2938;52.254;12.988;2024-03-22T17:49:44;53.72;;;29.52;;
5823;SDS011;2938;52.254;12.988;2024-03-22T17:52:41;53.22;;;32.05;;
5823;SDS011;2938;52.254;12.988;2024-03-22T17:55:24;47.42;;;28.25;;
5823;SDS011;2938;52.254;12.988;2024-03-22T17:58:03;50.50;;;31.00;;
5823;SDS011;2938;52.254;12.988;2024-03-22T18:00:45;52.55;;;32.08;;
5823;SDS011;2938;52.254;12.988;2024-03-22T18:03:55;54.58;;;31.25;;
5823;SDS011;2938;52.254;12.988;2024-03-22T18:07:02;53.22;;;32.25;;
5823;SDS011;2938;52.254;12.988;2024-03-22T18:14:08;62.20;;;33.67;;
5823;SDS011;2938;52.254;12.988;2024-03-22T18:16:54;56.53;;;32.95;;
5823;SDS011;2938;52.254;12.988;2024-03-22T18:19:22;56.10;;;33.03;;
5823;SDS011;2938;52.254;12.988;2024-03-22T18:30:29;61.92;;;35.47;;
5823;SDS011;2938;52.254;12.988;2024-03-22T18:33:23;63.15;;;36.80;;
5823;SDS011;2938;52.254;12.988;2024-03-22T18:35:54;58.65;;;34.65;;
5823;SDS011;2938;52.254;12.988;2024-03-22T18:38:59;59.77;;;34.40;;
5823;SDS011;2938;52.254;12.988;2024-03-22T18:44:24;63.03;;;34.17;;
5823;SDS011;2938;52.254;12.988;2024-03-22T18:47:05;54.23;;;35.43;;
5823;SDS011;2938;52.254;12.988;2024-03-22T18:49:40;60.28;;;33.95;;
5823;SDS011;2938;52.254;12.988;2024-03-22T18:52:25;56.90;;;35.35;;
5823;SDS011;2938;52.254;12.988;2024-03-22T18:54:56;59.35;;;33.45;;
5823;SDS011;2938;52.254;12.988;2024-03-22T18:57:33;52.95;;;35.25;;
5823;SDS011;2938;52.254;12.988;2024-03-22T19:00:01;61.38;;;35.55;;
5823;SDS011;2938;52.254;12.988;2024-03-22T19:04:51;55.05;;;36.63;;
5823;SDS011;2938;52.254;12.988;2024-03-22T19:06:27;51.00;;;32.92;;
5823;SDS011;2938;52.254;12.988;2024-03-22T19:09:23;48.13;;;31.20;;
5823;SDS011;2938;52.254;12.988;2024-03-22T19:12:00;57.03;;;35.30;;